Hlavní strana
METAR-TAF:

METAR-TAF

Letiště :

Dubaj, Spojené arabské emiráty

Mezinárodní letiště Dubaj

zeměpisná šířka: 25-15-10N, zeměpisná délka: 055-21-52E, výška: 8 m

Aktuální stav počasí

Zpráva byla vytvořena před 7 minutami, v 22:00 UTC
Západní vítr 3 kt, proměnlivý mezi jihozápadním a severozápadním
Teplota 30°C
Vlhkost vzduchu 49%
Tlak 1008 hPa
Viditelnost 10 km a více
Žádná oblačnost pod 1500 m, nevyskytují se cumulonimby.

METAR: OMDB 252200Z 26003KT 220V320 CAVOK 30/18 Q1008 NOSIG

Čas: 02:07 (22:07 UTC)

Předpověď počasí

Zpráva byla vytvořena před 5 hodinami a 11 minutami, v 16:56 UTC
Předpověď platná od 25 v 18 UTC do 27 v 00 UTC
vítr z různých směrů 2 kt
Viditelnost: 8000 m
Změna
od 26 v 06 UTC do 26 v 08 UTC
Západoseverozápadní vítr 12 kt
Změna
od 26 v 15 UTC do 26 v 17 UTC
Východojihovýchodní vítr 5 kt

TAF: OMDB 251656Z 2518/2700 VRB02KT 8000 NSC BECMG 2606/2608 30012KT BECMG 2615/2617 12005KT

Stav a předpovědi počasí z více než 4 000 letišť (zprávy METAR a TAF).

Červené a žluté tečky na mapě představují dostupné meteorologické stanice.

Když kurzor umístíte na tečku, zobrazí se název stanice.

Pak kliknutím zobrazíte stav a předpověď počasí.

Chcete-li změnit mapu, kliknutím na zelené tlačítko se znaménkem +mapu přiblížíte, kliknutím na zelené tlačítko se znaménkem – mapu oddálíte a kliknutím na zelené šipky přejdete na sousední mapy.


METAR-TAF: